createdAt,value
2018-01-07T00:00:48.363Z,74.20
2018-01-07T00:03:14.858Z,74.10
2018-01-07T00:05:41.306Z,73.90
2018-01-07T00:08:07.733Z,73.70
2018-01-07T00:10:34.229Z,73.80
2018-01-07T00:13:01.444Z,73.80
2018-01-07T00:15:27.908Z,73.70
2018-01-07T00:17:54.336Z,73.70
2018-01-07T00:20:20.782Z,73.70
2018-01-07T00:22:47.236Z,73.40
2018-01-07T00:25:13.703Z,73.00
2018-01-07T00:27:40.151Z,72.80
2018-01-07T00:30:06.584Z,72.80
2018-01-07T00:32:33.056Z,72.50
2018-01-07T00:35:00.358Z,72.70
2018-01-07T00:37:26.814Z,72.60
2018-01-07T00:39:53.284Z,72.60
2018-01-07T00:42:19.705Z,72.30
2018-01-07T00:44:46.156Z,72.00
2018-01-07T00:47:13.301Z,71.50
2018-01-07T00:49:40.511Z,71.30
2018-01-07T00:52:06.924Z,71.20
2018-01-07T00:54:33.405Z,71.30
2018-01-07T00:56:59.826Z,71.20
2018-01-07T00:59:26.245Z,71.20
2018-01-07T01:01:52.701Z,71.00
2018-01-07T01:04:19.116Z,71.30
2018-01-07T01:06:45.572Z,71.30
2018-01-07T01:09:12.009Z,71.40
2018-01-07T01:11:38.483Z,71.40
2018-01-07T01:14:04.985Z,71.30
2018-01-07T01:16:31.476Z,71.60
2018-01-07T01:18:57.905Z,71.60
2018-01-07T01:21:24.313Z,71.80
2018-01-07T01:23:50.763Z,72.20
2018-01-07T01:26:17.164Z,72.20
2018-01-07T01:28:43.604Z,72.10
2018-01-07T01:31:10.037Z,72.10
2018-01-07T01:33:36.499Z,72.00
2018-01-07T01:36:02.925Z,72.10
2018-01-07T01:38:29.368Z,72.20
2018-01-07T01:40:55.785Z,72.20
2018-01-07T01:43:22.210Z,72.10
2018-01-07T01:45:48.665Z,72.20
2018-01-07T01:48:15.101Z,72.00
2018-01-07T01:50:41.529Z,72.10
2018-01-07T01:53:07.969Z,72.00
2018-01-07T01:55:34.374Z,72.00
2018-01-07T01:58:00.941Z,71.80
2018-01-07T02:00:27.388Z,71.70
2018-01-07T02:02:54.568Z,71.80
2018-01-07T02:05:21.712Z,71.70
2018-01-07T02:07:48.912Z,71.70
2018-01-07T02:10:15.336Z,71.70
2018-01-07T02:12:41.785Z,71.80
2018-01-07T02:15:08.217Z,71.60
2018-01-07T02:17:34.655Z,71.30
2018-01-07T02:20:01.804Z,71.30
2018-01-07T02:22:28.228Z,71.20
2018-01-07T02:24:54.664Z,71.10
2018-01-07T02:27:21.063Z,70.90
2018-01-07T02:29:47.501Z,71.10
2018-01-07T02:32:13.945Z,71.00
2018-01-07T02:34:40.341Z,71.00
2018-01-07T02:37:07.501Z,71.40
2018-01-07T02:39:34.678Z,71.30
2018-01-07T02:42:01.100Z,71.30
2018-01-07T02:44:27.506Z,71.30
2018-01-07T02:46:54.968Z,71.00
2018-01-07T02:49:22.137Z,70.80
2018-01-07T02:51:48.573Z,70.70
2018-01-07T02:54:14.988Z,71.00
2018-01-07T02:56:41.454Z,71.00
2018-01-07T02:59:07.864Z,71.10
2018-01-07T03:01:34.279Z,71.10
2018-01-07T03:04:00.737Z,71.30
2018-01-07T03:06:27.494Z,71.10
2018-01-07T03:08:53.900Z,71.00
2018-01-07T03:11:20.340Z,71.00
2018-01-07T03:13:46.789Z,71.20
2018-01-07T03:16:13.196Z,71.40
2018-01-07T03:18:39.637Z,71.50
2018-01-07T03:21:06.045Z,71.50
2018-01-07T03:23:33.205Z,71.00
2018-01-07T03:25:59.620Z,70.90
2018-01-07T03:28:26.034Z,71.20
2018-01-07T03:30:52.438Z,71.40
2018-01-07T03:33:18.829Z,71.70
2018-01-07T03:35:45.980Z,72.00
2018-01-07T03:38:13.144Z,72.20
2018-01-07T03:40:39.631Z,72.10
2018-01-07T03:43:06.028Z,72.40
2018-01-07T03:45:32.410Z,72.80
2018-01-07T03:47:58.844Z,72.90
2018-01-07T03:50:25.237Z,72.90
2018-01-07T03:52:51.671Z,73.10
2018-01-07T03:55:18.048Z,73.00
2018-01-07T03:57:45.245Z,73.20
2018-01-07T04:00:11.669Z,73.10
2018-01-07T04:02:38.210Z,73.20
2018-01-07T04:05:04.621Z,73.30
2018-01-07T04:07:31.748Z,73.40
2018-01-07T04:09:58.176Z,73.20
2018-01-07T04:12:25.440Z,73.40
2018-01-07T04:14:52.608Z,73.20
2018-01-07T04:17:19.002Z,73.20
2018-01-07T04:19:45.416Z,73.40
2018-01-07T04:22:12.265Z,73.60
2018-01-07T04:24:39.440Z,73.90
2018-01-07T04:27:05.904Z,73.90
2018-01-07T04:29:32.301Z,73.90
2018-01-07T04:31:58.681Z,73.80
2018-01-07T04:34:25.120Z,73.60
2018-01-07T04:36:51.567Z,73.20
2018-01-07T04:39:18.045Z,72.90
2018-01-07T04:41:44.472Z,72.80
2018-01-07T04:44:11.627Z,73.10
2018-01-07T04:46:38.769Z,73.40
2018-01-07T04:49:05.942Z,73.50
2018-01-07T04:51:32.353Z,73.40
2018-01-07T04:53:58.777Z,73.60
2018-01-07T04:56:25.328Z,73.70
2018-01-07T04:58:51.736Z,73.70
2018-01-07T05:01:18.165Z,73.90
2018-01-07T05:03:44.580Z,74.00
2018-01-07T05:06:11.024Z,74.00
2018-01-07T05:08:37.443Z,74.30
2018-01-07T05:11:03.848Z,74.20
2018-01-07T05:13:30.304Z,74.40
2018-01-07T05:15:56.717Z,74.40
2018-01-07T05:18:23.120Z,74.20
2018-01-07T05:20:50.272Z,74.50
2018-01-07T05:23:17.432Z,74.50
2018-01-07T05:25:43.860Z,74.40
2018-01-07T05:28:10.266Z,74.40
2018-01-07T05:30:36.740Z,74.40
2018-01-07T05:33:03.157Z,74.50
2018-01-07T05:35:29.561Z,75.00
2018-01-07T05:37:55.973Z,75.20
2018-01-07T05:40:22.670Z,75.30
2018-01-07T05:42:49.092Z,75.60
2018-01-07T05:45:15.540Z,75.80
2018-01-07T05:47:41.997Z,75.80
2018-01-07T05:50:08.395Z,76.00
2018-01-07T05:52:34.817Z,76.10
2018-01-07T05:55:01.252Z,76.10
2018-01-07T05:57:27.657Z,76.20
2018-01-07T05:59:54.086Z,76.30
2018-01-07T06:02:20.495Z,76.40
2018-01-07T06:04:46.921Z,76.20
2018-01-07T06:07:13.369Z,76.10
2018-01-07T06:09:39.788Z,76.00
2018-01-07T06:12:06.256Z,76.10
2018-01-07T06:14:32.653Z,76.20
2018-01-07T06:16:59.067Z,76.20
2018-01-07T06:19:25.477Z,76.20
2018-01-07T06:21:52.645Z,76.40
2018-01-07T06:24:19.118Z,76.40
2018-01-07T06:26:45.534Z,76.50
2018-01-07T06:29:12.022Z,76.70
2018-01-07T06:31:39.461Z,76.80
2018-01-07T06:34:06.617Z,76.80
2018-01-07T06:36:33.025Z,76.80
2018-01-07T06:38:59.477Z,76.80
2018-01-07T06:41:25.892Z,76.80
2018-01-07T06:43:52.319Z,77.00
2018-01-07T06:46:18.713Z,77.10
2018-01-07T06:48:45.120Z,77.30
2018-01-07T06:51:11.571Z,77.40
2018-01-07T06:53:37.998Z,77.60
2018-01-07T06:56:05.142Z,77.70
2018-01-07T06:58:31.591Z,77.70
2018-01-07T07:00:58.000Z,77.70
2018-01-07T07:03:25.153Z,77.90
2018-01-07T07:05:52.277Z,77.90
2018-01-07T07:08:18.702Z,77.80
2018-01-07T07:10:45.957Z,78.20
2018-01-07T07:13:12.382Z,78.20
2018-01-07T07:15:38.840Z,78.30
2018-01-07T07:18:05.233Z,78.30
2018-01-07T07:20:31.670Z,78.40
2018-01-07T07:22:58.112Z,78.40
2018-01-07T07:25:25.262Z,78.40
2018-01-07T07:27:51.697Z,79.10
2018-01-07T07:30:18.093Z,78.40
2018-01-07T07:32:44.504Z,78.40
2018-01-07T07:35:11.741Z,78.50
2018-01-07T07:37:38.953Z,78.60
2018-01-07T07:40:05.383Z,78.60
2018-01-07T07:42:32.589Z,78.50
2018-01-07T07:44:59.743Z,78.60
2018-01-07T07:47:26.157Z,78.60
2018-01-07T07:49:53.327Z,78.60
2018-01-07T07:52:20.476Z,78.60
2018-01-07T07:54:46.954Z,78.60
2018-01-07T07:57:13.421Z,78.50
2018-01-07T07:59:40.586Z,78.70
2018-01-07T08:02:07.760Z,78.70
2018-01-07T08:04:34.172Z,78.60
2018-01-07T08:07:01.341Z,78.70
2018-01-07T08:09:27.736Z,78.70
2018-01-07T08:11:54.899Z,78.70
2018-01-07T08:14:21.472Z,78.70
2018-01-07T08:16:48.038Z,78.70
2018-01-07T08:19:14.553Z,78.60
2018-01-07T08:21:40.994Z,78.70
2018-01-07T08:24:07.436Z,78.80
2018-01-07T08:26:33.856Z,78.80
2018-01-07T08:29:00.299Z,78.70
2018-01-07T08:31:26.712Z,78.80
2018-01-07T08:33:53.169Z,78.70
2018-01-07T08:36:20.543Z,78.80
2018-01-07T08:38:47.728Z,78.80
2018-01-07T08:41:14.232Z,78.80
2018-01-07T08:43:40.639Z,78.90
2018-01-07T08:46:07.096Z,78.80
2018-01-07T08:48:33.507Z,78.90
2018-01-07T08:50:59.938Z,78.40
2018-01-07T08:53:27.153Z,79.00
2018-01-07T08:55:53.652Z,79.00
2018-01-07T08:58:20.812Z,79.00
2018-01-07T09:00:47.945Z,79.10
2018-01-07T09:03:15.158Z,79.10
2018-01-07T09:05:41.592Z,79.00
2018-01-07T09:08:08.026Z,79.00
2018-01-07T09:10:34.445Z,79.10
2018-01-07T09:13:00.921Z,79.10
2018-01-07T09:15:27.322Z,79.20
2018-01-07T09:17:53.773Z,79.20
2018-01-07T09:20:20.960Z,79.00
2018-01-07T09:22:47.384Z,79.00
2018-01-07T09:25:13.862Z,78.80
2018-01-07T09:27:40.300Z,78.90
2018-01-07T09:30:06.727Z,78.80
2018-01-07T09:32:33.242Z,78.70
2018-01-07T09:34:59.693Z,79.00
2018-01-07T09:37:26.094Z,79.00
2018-01-07T09:39:52.545Z,78.90
2018-01-07T09:42:18.974Z,78.70
2018-01-07T09:44:45.466Z,79.00
2018-01-07T09:47:11.961Z,79.30
2018-01-07T09:49:39.219Z,79.30
2018-01-07T09:52:05.626Z,79.20
2018-01-07T09:54:32.054Z,79.10
2018-01-07T09:56:58.489Z,79.10
2018-01-07T09:59:24.929Z,79.00
2018-01-07T10:01:51.363Z,79.00
2018-01-07T10:04:17.785Z,79.20
2018-01-07T10:06:44.237Z,79.30
2018-01-07T10:09:10.666Z,79.30
2018-01-07T10:11:37.135Z,79.30
2018-01-07T10:14:03.577Z,79.30
2018-01-07T10:16:29.997Z,79.30
2018-01-07T10:18:56.480Z,79.30
2018-01-07T10:21:22.909Z,79.30
2018-01-07T10:23:50.085Z,79.20
2018-01-07T10:26:16.475Z,79.20
2018-01-07T10:28:43.664Z,79.30
2018-01-07T10:31:10.096Z,79.30
2018-01-07T10:33:36.553Z,79.30
2018-01-07T10:36:03.789Z,79.30
2018-01-07T10:38:30.265Z,79.30
2018-01-07T10:40:56.729Z,79.30
2018-01-07T10:43:23.133Z,78.90
2018-01-07T10:45:49.585Z,78.70
2018-01-07T10:48:16.752Z,78.70
2018-01-07T10:50:43.194Z,78.70
2018-01-07T10:53:09.623Z,78.70
2018-01-07T10:55:36.133Z,78.50
2018-01-07T10:58:02.621Z,78.90
2018-01-07T11:00:29.075Z,78.60
2018-01-07T11:02:55.548Z,78.70
2018-01-07T11:05:21.999Z,78.70
2018-01-07T11:07:48.417Z,78.50
2018-01-07T11:10:14.832Z,78.40
2018-01-07T11:12:42.027Z,78.40
2018-01-07T11:15:08.454Z,78.40
2018-01-07T11:17:34.897Z,78.70
2018-01-07T11:20:01.423Z,79.00
2018-01-07T11:22:27.882Z,78.80
2018-01-07T11:24:54.309Z,78.90
2018-01-07T11:27:20.776Z,79.10
2018-01-07T11:29:47.963Z,79.20
2018-01-07T11:32:14.421Z,79.20
2018-01-07T11:34:40.849Z,79.20
2018-01-07T11:37:07.307Z,79.30
2018-01-07T11:39:33.753Z,79.00
2018-01-07T11:42:00.217Z,79.20
2018-01-07T11:44:26.639Z,78.60
2018-01-07T11:46:53.101Z,79.10
2018-01-07T11:49:19.524Z,79.10
2018-01-07T11:51:46.004Z,79.00
2018-01-07T11:54:12.434Z,79.10
2018-01-07T11:56:38.836Z,79.10
2018-01-07T11:59:05.286Z,79.00
2018-01-07T12:01:31.742Z,79.10
2018-01-07T12:03:58.214Z,79.10
2018-01-07T12:06:24.655Z,79.00
2018-01-07T12:08:51.094Z,79.10
2018-01-07T12:11:17.571Z,79.30
2018-01-07T12:13:44.105Z,79.20
2018-01-07T12:16:11.301Z,79.80
2018-01-07T12:18:37.754Z,79.80
2018-01-07T12:21:04.238Z,79.80
2018-01-07T12:23:31.417Z,80.00
2018-01-07T12:25:57.874Z,80.00
2018-01-07T12:28:24.338Z,80.10
2018-01-07T12:30:50.800Z,80.20
2018-01-07T12:33:17.248Z,80.10
2018-01-07T12:35:43.685Z,80.30
2018-01-07T12:38:10.137Z,80.30
2018-01-07T12:40:36.621Z,80.40
2018-01-07T12:43:03.110Z,80.40
2018-01-07T12:45:29.608Z,80.60
2018-01-07T12:47:56.024Z,80.60
2018-01-07T12:50:22.566Z,80.70
2018-01-07T12:52:49.773Z,80.80
2018-01-07T12:55:16.966Z,80.70
2018-01-07T12:57:44.124Z,80.60
2018-01-07T13:00:10.594Z,80.70
2018-01-07T13:02:37.057Z,80.80
2018-01-07T13:05:04.234Z,80.90
2018-01-07T13:07:31.477Z,81.00
2018-01-07T13:09:58.714Z,80.90
2018-01-07T13:12:25.190Z,81.00
2018-01-07T13:14:51.634Z,81.70
2018-01-07T13:17:18.135Z,81.80
2018-01-07T13:19:44.635Z,81.00
2018-01-07T13:22:11.093Z,81.20
2018-01-07T13:24:37.581Z,81.20
2018-01-07T13:27:04.092Z,81.10
2018-01-07T13:29:30.558Z,81.10
2018-01-07T13:31:56.980Z,81.20
2018-01-07T13:34:24.174Z,81.50
2018-01-07T13:36:50.610Z,81.20
2018-01-07T13:39:17.814Z,81.20
2018-01-07T13:41:44.253Z,81.20
2018-01-07T13:44:10.750Z,81.10
2018-01-07T13:46:37.947Z,81.20
2018-01-07T13:49:04.402Z,81.20
2018-01-07T13:51:30.873Z,81.30
2018-01-07T13:53:57.312Z,82.00
2018-01-07T13:56:23.791Z,81.30
2018-01-07T13:58:50.227Z,81.30
2018-01-07T14:01:16.652Z,81.40
2018-01-07T14:03:43.117Z,81.30
2018-01-07T14:06:10.278Z,81.30
2018-01-07T14:08:37.491Z,81.20
2018-01-07T14:11:03.937Z,81.20
2018-01-07T14:13:31.140Z,81.20
2018-01-07T14:15:57.634Z,81.20
2018-01-07T14:18:24.830Z,81.20
2018-01-07T14:20:51.302Z,81.20
2018-01-07T14:23:18.513Z,81.40
2018-01-07T14:25:45.325Z,81.20
2018-01-07T14:28:12.192Z,81.10
2018-01-07T14:30:38.664Z,81.30
2018-01-07T14:33:05.140Z,81.00
2018-01-07T14:35:31.593Z,81.00
2018-01-07T14:37:58.073Z,81.10
2018-01-07T14:40:25.304Z,81.20
2018-01-07T14:42:51.748Z,81.10
2018-01-07T14:45:19.017Z,81.00
2018-01-07T14:47:46.248Z,80.90
2018-01-07T14:50:12.737Z,80.90
2018-01-07T14:52:39.169Z,80.90
2018-01-07T14:55:05.617Z,81.10
2018-01-07T14:57:32.159Z,81.00
2018-01-07T14:59:58.671Z,81.00
2018-01-07T15:02:25.179Z,80.90
2018-01-07T15:04:52.397Z,80.60
2018-01-07T15:07:18.864Z,81.40
2018-01-07T15:09:45.354Z,80.50
2018-01-07T15:12:11.850Z,80.30
2018-01-07T15:14:38.327Z,80.30
2018-01-07T15:17:04.797Z,80.30
2018-01-07T15:19:31.271Z,80.30
2018-01-07T15:21:57.735Z,80.30
2018-01-07T15:24:24.969Z,80.30
2018-01-07T15:26:52.169Z,80.40
2018-01-07T15:29:19.365Z,79.60
2018-01-07T15:31:45.901Z,80.30
2018-01-07T15:34:12.391Z,80.30
2018-01-07T15:36:39.569Z,80.30
2018-01-07T15:39:06.037Z,80.30
2018-01-07T15:41:32.467Z,80.30
2018-01-07T15:43:59.011Z,80.30
2018-01-07T15:46:25.467Z,80.30
2018-01-07T15:48:51.966Z,80.30
2018-01-07T15:51:18.468Z,80.30
2018-01-07T15:53:44.916Z,80.30
2018-01-07T15:56:11.398Z,80.20
2018-01-07T15:58:38.629Z,80.30
2018-01-07T16:01:05.148Z,80.20
2018-01-07T16:03:31.673Z,80.30
2018-01-07T16:05:58.168Z,80.30
2018-01-07T16:08:24.665Z,79.50
2018-01-07T16:10:51.127Z,79.40
2018-01-07T16:13:18.390Z,79.40
2018-01-07T16:15:45.593Z,79.50
2018-01-07T16:18:12.069Z,79.40
2018-01-07T16:20:39.297Z,79.50
2018-01-07T16:23:05.783Z,79.50
2018-01-07T16:25:32.227Z,79.20
2018-01-07T16:27:58.720Z,79.00
2018-01-07T16:30:25.902Z,79.00
2018-01-07T16:32:52.407Z,78.90
2018-01-07T16:35:19.654Z,78.40
2018-01-07T16:37:46.161Z,78.30
2018-01-07T16:40:12.621Z,78.40
2018-01-07T16:42:39.054Z,78.10
2018-01-07T16:45:05.604Z,78.00
2018-01-07T16:47:32.054Z,78.20
2018-01-07T16:49:58.598Z,78.10
2018-01-07T16:52:25.122Z,78.10
2018-01-07T16:54:51.569Z,78.10
2018-01-07T16:57:18.005Z,78.00
2018-01-07T16:59:44.483Z,77.80
2018-01-07T17:02:10.937Z,77.80
2018-01-07T17:04:37.521Z,78.00
2018-01-07T17:07:03.997Z,77.60
2018-01-07T17:09:31.275Z,77.60
2018-01-07T17:11:57.800Z,77.50
2018-01-07T17:14:24.280Z,77.10
2018-01-07T17:16:50.742Z,77.30
2018-01-07T17:19:17.931Z,77.40
2018-01-07T17:21:44.413Z,77.30
2018-01-07T17:24:10.877Z,77.30
2018-01-07T17:26:38.132Z,76.80
2018-01-07T17:29:05.317Z,75.80
2018-01-07T17:31:31.799Z,75.80
2018-01-07T17:33:58.241Z,75.60
2018-01-07T17:36:25.433Z,74.80
2018-01-07T17:38:51.885Z,74.80
2018-01-07T17:41:18.333Z,74.10
2018-01-07T17:43:44.799Z,74.00
2018-01-07T17:46:11.266Z,73.80
2018-01-07T17:48:37.702Z,73.50
2018-01-07T17:51:04.193Z,73.30
2018-01-07T17:53:31.367Z,73.30
2018-01-07T17:55:57.843Z,73.10
2018-01-07T17:58:24.329Z,72.90
2018-01-07T18:00:50.829Z,72.50
2018-01-07T18:03:18.066Z,70.30
2018-01-07T18:05:44.566Z,70.20
2018-01-07T18:08:11.018Z,71.90
2018-01-07T18:10:37.482Z,72.10
2018-01-07T18:13:03.946Z,72.10
2018-01-07T18:15:30.472Z,73.50
2018-01-07T18:17:57.684Z,72.10
2018-01-07T18:20:24.195Z,72.10
2018-01-07T18:22:50.701Z,72.10
2018-01-07T18:25:17.138Z,72.10
2018-01-07T18:27:43.684Z,72.00
2018-01-07T18:30:10.132Z,72.30
2018-01-07T18:32:36.601Z,72.10
2018-01-07T18:35:03.099Z,72.30
2018-01-07T18:37:29.865Z,72.60
2018-01-07T18:39:57.163Z,72.20
2018-01-07T18:42:24.357Z,72.10
2018-01-07T18:44:50.811Z,72.00
2018-01-07T18:47:17.301Z,72.50
2018-01-07T18:49:43.794Z,72.60
2018-01-07T18:52:10.311Z,72.90
2018-01-07T18:54:36.757Z,72.90
2018-01-07T18:57:03.214Z,72.80
2018-01-07T18:59:30.409Z,72.70
2018-01-07T19:01:56.897Z,72.70
2018-01-07T19:04:23.403Z,72.70
2018-01-07T19:06:50.649Z,73.50
2018-01-07T19:09:17.156Z,73.50
2018-01-07T19:11:43.685Z,73.50
2018-01-07T19:14:10.173Z,73.50
2018-01-07T19:16:36.646Z,73.20
2018-01-07T19:19:03.082Z,72.80
2018-01-07T19:21:29.560Z,73.30
2018-01-07T19:23:56.005Z,73.40
2018-01-07T19:26:23.268Z,73.70
2018-01-07T19:28:49.746Z,73.60
2018-01-07T19:31:16.327Z,73.50
2018-01-07T19:33:42.807Z,73.50
2018-01-07T19:36:09.254Z,73.00
2018-01-07T19:38:35.775Z,73.20
2018-01-07T19:41:02.280Z,73.40
2018-01-07T19:43:29.540Z,73.20
2018-01-07T19:45:56.004Z,73.20
2018-01-07T19:48:22.534Z,73.20
2018-01-07T19:50:49.121Z,73.20
2018-01-07T19:53:15.583Z,73.30
2018-01-07T19:55:42.064Z,73.10
2018-01-07T19:58:08.542Z,72.60
2018-01-07T20:00:35.280Z,72.80
2018-01-07T20:03:01.958Z,72.70
2018-01-07T20:05:28.498Z,72.80
2018-01-07T20:07:54.967Z,72.80
2018-01-07T20:10:21.422Z,72.80
2018-01-07T20:12:47.939Z,73.20
2018-01-07T20:15:15.112Z,72.70
2018-01-07T20:17:41.570Z,72.70
2018-01-07T20:20:08.079Z,73.10
2018-01-07T20:22:34.518Z,73.10
2018-01-07T20:25:01.032Z,72.30
2018-01-07T20:27:27.542Z,72.80
2018-01-07T20:29:54.021Z,72.80
2018-01-07T20:32:20.524Z,72.50
2018-01-07T20:34:47.705Z,72.90
2018-01-07T20:37:14.233Z,72.80
2018-01-07T20:39:40.664Z,73.20
2018-01-07T20:42:07.146Z,73.30
2018-01-07T20:44:33.606Z,73.40
2018-01-07T20:47:00.827Z,73.20
2018-01-07T20:49:27.302Z,73.00
2018-01-07T20:51:54.570Z,72.90
2018-01-07T20:54:21.069Z,72.90
2018-01-07T20:56:48.311Z,72.40
2018-01-07T20:59:14.794Z,72.40
2018-01-07T21:01:41.293Z,72.40
2018-01-07T21:04:07.789Z,72.40
2018-01-07T21:06:34.297Z,73.20
2018-01-07T21:09:00.843Z,71.70
2018-01-07T21:11:28.850Z,72.10
2018-01-07T21:13:55.329Z,71.80
2018-01-07T21:16:21.834Z,72.50
2018-01-07T21:18:48.329Z,72.80
2018-01-07T21:21:14.773Z,73.20
2018-01-07T21:23:41.401Z,73.20
2018-01-07T21:26:07.862Z,73.40
2018-01-07T21:28:34.329Z,73.00
2018-01-07T21:31:00.870Z,73.30
2018-01-07T21:33:27.338Z,73.10
2018-01-07T21:35:54.652Z,73.00
2018-01-07T21:38:21.880Z,73.20
2018-01-07T21:40:49.173Z,73.60
2018-01-07T21:43:15.601Z,73.60
2018-01-07T21:45:42.053Z,73.70
2018-01-07T21:48:08.549Z,74.10
2018-01-07T21:50:35.794Z,74.00
2018-01-07T21:53:03.006Z,74.10
2018-01-07T21:55:29.514Z,74.00
2018-01-07T21:57:55.933Z,74.20
2018-01-07T22:00:43.408Z,74.00
2018-01-07T22:03:21.906Z,74.00
2018-01-07T22:05:54.082Z,73.70
2018-01-07T22:08:20.611Z,73.70
2018-01-07T22:10:47.046Z,74.10
2018-01-07T22:13:13.638Z,74.30
2018-01-07T22:15:40.145Z,74.50
2018-01-07T22:18:06.589Z,74.30
2018-01-07T22:20:33.805Z,74.30
2018-01-07T22:23:00.229Z,74.10
2018-01-07T22:25:26.736Z,74.40
2018-01-07T22:27:53.199Z,74.40
2018-01-07T22:30:19.641Z,74.50
2018-01-07T22:32:46.082Z,74.60
2018-01-07T22:35:12.580Z,74.60
2018-01-07T22:37:39.026Z,74.50
2018-01-07T22:40:05.457Z,74.40
2018-01-07T22:42:31.929Z,74.60
2018-01-07T22:44:58.389Z,74.90
2018-01-07T22:47:31.692Z,74.70
2018-01-07T22:49:58.150Z,74.70
2018-01-07T22:52:24.606Z,74.80
2018-01-07T22:54:51.042Z,74.90
2018-01-07T22:57:17.557Z,74.70
2018-01-07T22:59:43.965Z,74.50
2018-01-07T23:02:10.413Z,74.30
2018-01-07T23:04:36.866Z,74.20
2018-01-07T23:07:03.361Z,74.30
2018-01-07T23:09:29.787Z,74.10
2018-01-07T23:11:56.233Z,74.00
2018-01-07T23:14:22.694Z,73.80
2018-01-07T23:16:49.132Z,73.70
2018-01-07T23:19:15.568Z,74.00
2018-01-07T23:21:42.133Z,74.00
2018-01-07T23:24:08.589Z,74.30
2018-01-07T23:26:35.761Z,73.60
2018-01-07T23:29:02.216Z,73.50
2018-01-07T23:31:28.641Z,73.50
2018-01-07T23:33:55.077Z,73.70
2018-01-07T23:36:21.500Z,74.00
2018-01-07T23:38:47.933Z,74.20
2018-01-07T23:41:14.356Z,73.80
2018-01-07T23:43:40.782Z,73.50
2018-01-07T23:46:07.261Z,73.50
2018-01-07T23:48:33.706Z,73.60
2018-01-07T23:51:00.157Z,73.80
2018-01-07T23:53:26.597Z,73.70
2018-01-07T23:55:53.032Z,73.60
2018-01-07T23:58:19.636Z,73.80
